Time;durP1;ratioP1;P1;durP2;ratioP2;P2;SDS_P1;SDS_P2;PMS_P1;PMS_P2;Temp;Humidity;BMP_temperature;BMP_pressure;BME280_temperature;BME280_humidity;BME280_pressure;Samples;Min_cycle;Max_cycle;Signal;HPM_P1;HPM_P2
2023/03/09 00:00:37;;;;;;;44.80;21.20;;;1.00;99.90;;;;;;6218337;23;20004;-84
2023/03/09 00:03:03;;;;;;;44.75;21.42;;;1.00;99.90;;;;;;6218522;23;20015;-84
2023/03/09 00:05:28;;;;;;;47.42;20.17;;;1.00;99.90;;;;;;6246071;22;20000;-85
2023/03/09 00:07:55;;;;;;;50.20;22.02;;;1.00;99.90;;;;;;6218986;23;20036;-84
2023/03/09 00:10:21;;;;;;;43.67;20.05;;;1.00;99.90;;;;;;6244816;23;20054;-84
2023/03/09 00:12:50;;;;;;;47.53;22.08;;;1.00;99.90;;;;;;6218925;23;20000;-83
2023/03/09 00:15:16;;;;;;;50.03;22.73;;;1.00;99.90;;;;;;6217436;23;20011;-83
2023/03/09 00:17:44;;;;;;;42.80;18.13;;;1.00;99.90;;;;;;6218132;23;20004;-85
2023/03/09 00:20:17;;;;;;;45.33;20.85;;;1.00;99.90;;;;;;6217982;23;20014;-84
2023/03/09 00:22:53;;;;;;;49.95;22.23;;;1.00;99.90;;;;;;6218408;23;20091;-84
2023/03/09 00:25:21;;;;;;;48.45;23.05;;;1.00;99.90;;;;;;6218305;23;20043;-84
2023/03/09 00:27:48;;;;;;;49.65;22.77;;;1.00;99.90;;;;;;6217947;23;20485;-83
2023/03/09 00:30:15;;;;;;;42.40;19.58;;;1.00;99.90;;;;;;6218301;23;20078;-83
2023/03/09 00:32:41;;;;;;;51.28;22.88;;;1.00;99.90;;;;;;6245655;23;20442;-84
2023/03/09 00:35:08;;;;;;;51.80;23.40;;;1.00;99.90;;;;;;6218657;23;20004;-83
2023/03/09 00:37:34;;;;;;;44.22;19.23;;;1.00;99.90;;;;;;6245628;23;20008;-84
2023/03/09 00:40:01;;;;;;;46.92;22.35;;;1.00;99.90;;;;;;6218068;23;20012;-85
2023/03/09 00:42:27;;;;;;;51.33;22.65;;;1.10;99.90;;;;;;6218508;23;20007;-84
2023/03/09 00:44:53;;;;;;;50.20;23.55;;;1.10;99.90;;;;;;6218847;23;20011;-84
2023/03/09 00:47:19;;;;;;;52.78;23.52;;;1.10;99.90;;;;;;6218359;23;20366;-85
2023/03/09 00:49:45;;;;;;;52.75;23.27;;;1.10;99.90;;;;;;6217988;23;20004;-83
2023/03/09 00:52:11;;;;;;;55.45;25.75;;;1.10;99.90;;;;;;6218658;23;20008;-84
2023/03/09 00:54:37;;;;;;;54.15;27.00;;;1.10;99.90;;;;;;6218175;23;20079;-83
2023/03/09 00:57:03;;;;;;;54.58;25.33;;;1.10;99.90;;;;;;6217977;23;20083;-84
2023/03/09 00:59:28;;;;;;;53.08;25.42;;;1.10;99.90;;;;;;6218441;23;20026;-84
2023/03/09 01:01:54;;;;;;;54.85;25.42;;;1.10;99.90;;;;;;6218376;23;20004;-85
2023/03/09 01:04:20;;;;;;;52.60;24.25;;;1.10;99.90;;;;;;6187819;23;20012;-85
2023/03/09 01:06:45;;;;;;;53.92;24.15;;;1.10;99.90;;;;;;6188872;23;20096;-84
2023/03/09 01:09:11;;;;;;;51.72;23.67;;;1.00;99.90;;;;;;6188315;23;20004;-84
2023/03/09 01:11:37;;;;;;;54.35;25.48;;;1.10;99.90;;;;;;6188730;23;20001;-85
2023/03/09 01:14:03;;;;;;;58.20;25.95;;;1.10;99.90;;;;;;6188961;23;20087;-84
2023/03/09 01:16:32;;;;;;;58.90;24.73;;;1.10;99.90;;;;;;6188885;23;20028;-84
2023/03/09 01:18:58;;;;;;;58.67;26.65;;;1.10;99.90;;;;;;6189653;23;20016;-84
2023/03/09 01:21:24;;;;;;;54.13;25.02;;;1.10;99.90;;;;;;6188596;23;20378;-84
2023/03/09 01:23:49;;;;;;;57.83;25.17;;;1.10;99.90;;;;;;6189618;23;20008;-84
2023/03/09 01:26:15;;;;;;;59.28;25.13;;;1.10;99.90;;;;;;6188292;23;20001;-83
2023/03/09 01:28:41;;;;;;;57.55;25.35;;;1.10;99.90;;;;;;6188688;23;20009;-84
2023/03/09 01:31:10;;;;;;;58.45;25.08;;;1.20;99.90;;;;;;6162926;23;20029;-83
2023/03/09 01:33:39;;;;;;;56.78;25.48;;;1.20;99.90;;;;;;6188410;23;20134;-83
2023/03/09 01:36:07;;;;;;;60.42;26.10;;;1.20;99.90;;;;;;6187691;23;19997;-85
2023/03/09 01:38:33;;;;;;;60.05;26.13;;;1.20;99.90;;;;;;6187143;23;20059;-85
2023/03/09 01:40:59;;;;;;;60.53;24.65;;;1.20;99.90;;;;;;6187930;23;20001;-84
2023/03/09 01:43:40;;;;;;;60.47;26.45;;;1.20;99.90;;;;;;6187259;23;20012;-82
2023/03/09 01:46:37;;;;;;;58.65;24.85;;;1.20;99.90;;;;;;6186979;23;20012;-84
2023/03/09 01:49:22;;;;;;;62.58;26.15;;;1.20;99.90;;;;;;6187373;23;20008;-84
2023/03/09 01:52:10;;;;;;;60.50;25.42;;;1.20;99.90;;;;;;6187540;23;20101;-84
2023/03/09 01:54:47;;;;;;;59.78;25.77;;;1.20;99.90;;;;;;6188074;23;20347;-83
2023/03/09 01:57:22;;;;;;;59.80;25.42;;;1.20;99.90;;;;;;6212446;23;20016;-84
2023/03/09 01:59:51;;;;;;;60.28;26.10;;;1.20;99.90;;;;;;6188396;23;20031;-84
2023/03/09 02:02:19;;;;;;;57.67;25.70;;;1.20;99.90;;;;;;6219061;23;20004;-84
2023/03/09 02:04:49;;;;;;;61.95;25.23;;;1.20;99.90;;;;;;6219548;23;20090;-83
2023/03/09 02:07:18;;;;;;;59.45;27.10;;;1.20;99.90;;;;;;6217553;23;20008;-84
2023/03/09 02:09:49;;;;;;;61.45;26.80;;;1.30;99.90;;;;;;6218549;23;20001;-84
2023/03/09 02:12:19;;;;;;;65.67;26.17;;;1.20;99.90;;;;;;6217514;23;20087;-83
2023/03/09 02:14:45;;;;;;;65.55;26.77;;;1.20;99.90;;;;;;6218279;23;20007;-84
2023/03/09 02:17:13;;;;;;;64.68;27.75;;;1.30;99.90;;;;;;6216715;23;20083;-83
2023/03/09 02:19:51;;;;;;;64.60;27.98;;;1.30;99.90;;;;;;6217661;23;20438;-83
2023/03/09 02:22:17;;;;;;;64.75;28.42;;;1.30;99.90;;;;;;6216648;23;20058;-83
2023/03/09 02:25:07;;;;;;;63.15;26.38;;;1.20;99.90;;;;;;6216953;23;20008;-83
2023/03/09 02:27:33;;;;;;;69.50;29.23;;;1.30;99.90;;;;;;6217055;23;20508;-83
2023/03/09 02:29:59;;;;;;;65.80;27.30;;;1.20;99.90;;;;;;6217407;23;20026;-85
2023/03/09 02:32:25;;;;;;;70.47;29.48;;;1.30;99.90;;;;;;6217757;23;20013;-82
2023/03/09 02:34:51;;;;;;;70.90;29.77;;;1.20;99.90;;;;;;6216927;23;20000;-83
2023/03/09 02:37:29;;;;;;;74.18;30.33;;;1.30;99.90;;;;;;6215772;23;20008;-84
2023/03/09 02:39:58;;;;;;;76.63;32.55;;;1.30;99.90;;;;;;6216950;23;20019;-83
2023/03/09 02:42:26;;;;;;;80.60;33.33;;;1.30;99.90;;;;;;6217202;23;20000;-84
2023/03/09 02:44:53;;;;;;;71.82;30.80;;;1.30;99.90;;;;;;6218110;23;20004;-83
2023/03/09 02:47:21;;;;;;;74.22;32.25;;;1.30;99.90;;;;;;6217960;23;20027;-84
2023/03/09 02:49:47;;;;;;;77.95;32.65;;;1.30;99.90;;;;;;6218039;23;20393;-84
2023/03/09 02:52:13;;;;;;;69.80;30.02;;;1.30;99.90;;;;;;6243630;22;20000;-84
2023/03/09 02:54:39;;;;;;;73.38;32.00;;;1.30;99.90;;;;;;6217478;23;20004;-83
2023/03/09 02:57:05;;;;;;;77.72;31.10;;;1.30;99.90;;;;;;6216748;23;20000;-84
2023/03/09 02:59:31;;;;;;;73.50;30.88;;;1.40;99.90;;;;;;6217426;23;20016;-85
2023/03/09 03:01:57;;;;;;;71.70;30.73;;;1.40;99.90;;;;;;6217329;23;20004;-83
2023/03/09 03:04:23;;;;;;;71.82;30.02;;;1.30;99.90;;;;;;6216903;23;20008;-85
2023/03/09 03:06:49;;;;;;;73.40;29.63;;;1.40;99.90;;;;;;6217548;23;20003;-85
2023/03/09 03:09:15;;;;;;;80.47;32.10;;;1.30;99.90;;;;;;6217386;23;20008;-83
2023/03/09 03:11:40;;;;;;;76.70;32.55;;;1.40;99.90;;;;;;6217809;23;20370;-84
2023/03/09 03:14:06;;;;;;;71.32;30.45;;;1.40;99.90;;;;;;6217843;23;20004;-84
2023/03/09 03:16:34;;;;;;;74.60;29.98;;;1.40;99.90;;;;;;6218037;23;20442;-84
2023/03/09 03:19:00;;;;;;;73.47;31.35;;;1.40;99.90;;;;;;6221404;23;20012;-83
2023/03/09 03:21:26;;;;;;;73.55;29.00;;;1.40;99.90;;;;;;6220061;23;20000;-83
2023/03/09 03:23:52;;;;;;;71.15;30.35;;;1.40;99.90;;;;;;6219214;23;20066;-84
2023/03/09 03:26:18;;;;;;;69.78;27.67;;;1.40;99.90;;;;;;6245891;23;19996;-83
2023/03/09 03:28:43;;;;;;;68.68;28.08;;;1.40;99.90;;;;;;6219441;23;20015;-83
2023/03/09 03:31:10;;;;;;;66.07;28.33;;;1.40;99.90;;;;;;6218949;23;20075;-84
2023/03/09 03:33:36;;;;;;;63.55;28.05;;;1.40;99.90;;;;;;6219645;23;20004;-83
2023/03/09 03:36:03;;;;;;;59.95;24.40;;;1.40;99.90;;;;;;6244967;23;20007;-83
2023/03/09 03:38:29;;;;;;;65.40;28.67;;;1.40;99.90;;;;;;6218529;23;20008;-82
2023/03/09 03:40:54;;;;;;;64.80;27.25;;;1.40;99.90;;;;;;6218824;23;20000;-84
2023/03/09 03:43:20;;;;;;;58.70;24.88;;;1.40;99.90;;;;;;6218169;23;20066;-82
2023/03/09 03:45:46;;;;;;;64.60;26.67;;;1.40;99.90;;;;;;6218847;23;20000;-83
2023/03/09 03:48:11;;;;;;;59.67;24.20;;;1.40;99.90;;;;;;6218837;23;20004;-84
2023/03/09 03:50:37;;;;;;;64.38;26.33;;;1.40;99.90;;;;;;6218289;22;20014;-84
2023/03/09 03:53:03;;;;;;;55.55;23.05;;;1.40;99.90;;;;;;6218786;23;20004;-83
2023/03/09 03:55:29;;;;;;;61.63;26.30;;;1.40;99.90;;;;;;6218053;23;20434;-83
2023/03/09 03:57:55;;;;;;;63.20;26.25;;;1.40;99.90;;;;;;6219115;23;20062;-83
2023/03/09 04:00:22;;;;;;;61.67;24.73;;;1.40;99.90;;;;;;6218485;23;20008;-84
2023/03/09 04:02:48;;;;;;;57.92;25.05;;;1.40;99.90;;;;;;6218539;23;20426;-83
2023/03/09 04:05:16;;;;;;;64.38;26.23;;;1.40;99.90;;;;;;6217214;23;20004;-83
2023/03/09 04:07:42;;;;;;;57.05;23.80;;;1.40;99.90;;;;;;6218813;23;20013;-84
2023/03/09 04:10:08;;;;;;;63.47;24.70;;;1.40;99.90;;;;;;6218018;23;20011;-84
2023/03/09 04:12:34;;;;;;;61.83;24.58;;;1.40;99.90;;;;;;6218849;23;20040;-83
2023/03/09 04:15:00;;;;;;;63.30;25.48;;;1.40;99.90;;;;;;6218766;23;20007;-83
2023/03/09 04:17:26;;;;;;;65.65;25.40;;;1.40;99.90;;;;;;6218500;23;20036;-84
2023/03/09 04:19:51;;;;;;;61.38;23.88;;;1.40;99.90;;;;;;6245182;23;20002;-84
2023/03/09 04:22:19;;;;;;;66.10;24.35;;;1.40;99.90;;;;;;6217967;23;20083;-84
2023/03/09 04:24:48;;;;;;;58.70;24.05;;;1.40;99.90;;;;;;6218900;23;20012;-84
2023/03/09 04:27:13;;;;;;;63.75;24.40;;;1.50;99.90;;;;;;6218475;23;20004;-84
2023/03/09 04:29:39;;;;;;;62.33;26.00;;;1.40;99.90;;;;;;6245140;23;20547;-83
2023/03/09 04:32:05;;;;;;;62.53;25.42;;;1.50;99.90;;;;;;6218624;23;20004;-84
2023/03/09 04:34:31;;;;;;;55.33;22.77;;;1.50;99.90;;;;;;6219037;23;20008;-83
2023/03/09 04:36:57;;;;;;;60.30;24.33;;;1.50;99.90;;;;;;6218226;23;20000;-84
2023/03/09 04:39:23;;;;;;;61.40;24.75;;;1.50;99.90;;;;;;6217948;23;20090;-84
2023/03/09 04:41:49;;;;;;;60.80;25.55;;;1.50;99.90;;;;;;6245423;23;19996;-83
2023/03/09 04:44:14;;;;;;;63.40;24.25;;;1.50;99.90;;;;;;6218397;23;20062;-83
2023/03/09 04:46:40;;;;;;;60.15;23.50;;;1.50;99.90;;;;;;6219041;23;20008;-84
2023/03/09 04:49:06;;;;;;;61.50;24.02;;;1.50;99.90;;;;;;6218554;23;20445;-83
2023/03/09 04:51:32;;;;;;;60.80;23.35;;;1.50;99.90;;;;;;6245205;23;20005;-83
2023/03/09 04:53:57;;;;;;;65.95;24.73;;;1.50;99.90;;;;;;6218914;23;20426;-84
2023/03/09 04:56:23;;;;;;;57.20;22.13;;;1.50;99.90;;;;;;6218169;23;20054;-83
2023/03/09 04:58:50;;;;;;;55.25;22.35;;;1.50;99.90;;;;;;6218805;23;20070;-83
2023/03/09 05:01:16;;;;;;;60.50;24.02;;;1.50;99.90;;;;;;6219181;23;20005;-84
2023/03/09 05:03:41;;;;;;;60.22;23.10;;;1.50;99.90;;;;;;6218144;23;20049;-83
2023/03/09 05:06:07;;;;;;;61.85;24.77;;;1.50;99.90;;;;;;6218523;23;20004;-84
2023/03/09 05:08:33;;;;;;;55.38;22.15;;;1.50;99.90;;;;;;6218682;23;20050;-84
2023/03/09 05:10:59;;;;;;;57.67;22.95;;;1.50;99.90;;;;;;6217938;23;20008;-84
2023/03/09 05:13:25;;;;;;;60.38;24.73;;;1.50;99.90;;;;;;6218403;23;20015;-84
2023/03/09 05:15:51;;;;;;;55.40;23.75;;;1.50;99.90;;;;;;6220687;23;20434;-84
2023/03/09 05:18:17;;;;;;;55.05;22.80;;;1.40;99.90;;;;;;6220562;23;20020;-84
2023/03/09 05:20:42;;;;;;;56.85;23.58;;;1.40;99.90;;;;;;6219248;23;20011;-84
2023/03/09 05:23:08;;;;;;;57.47;22.67;;;1.40;99.90;;;;;;6218641;23;20010;-84
2023/03/09 05:25:34;;;;;;;61.75;24.17;;;1.40;99.90;;;;;;6219617;23;20004;-82
2023/03/09 05:28:00;;;;;;;61.65;25.83;;;1.40;99.90;;;;;;6246130;22;20012;-84
2023/03/09 05:30:26;;;;;;;56.95;23.27;;;1.40;99.90;;;;;;6219001;23;20011;-84
2023/03/09 05:32:52;;;;;;;58.33;23.60;;;1.40;99.90;;;;;;6219601;23;20004;-84
2023/03/09 05:35:20;;;;;;;60.15;22.35;;;1.40;99.90;;;;;;6219458;23;20488;-83
2023/03/09 05:37:47;;;;;;;57.92;23.15;;;1.40;99.90;;;;;;6219824;23;20509;-84
2023/03/09 05:40:14;;;;;;;66.85;25.88;;;1.40;99.90;;;;;;6220152;23;20058;-83
2023/03/09 05:42:44;;;;;;;61.75;24.80;;;1.40;99.90;;;;;;6220430;23;19996;-84
2023/03/09 05:45:10;;;;;;;65.30;25.15;;;1.40;99.90;;;;;;6220318;23;20004;-83
2023/03/09 05:47:38;;;;;;;62.08;25.17;;;1.40;99.90;;;;;;6220575;23;20402;-84
2023/03/09 05:50:05;;;;;;;58.80;22.80;;;1.40;99.90;;;;;;6220758;23;20000;-84
2023/03/09 05:52:30;;;;;;;60.83;25.52;;;1.40;99.90;;;;;;6221761;23;20098;-84
2023/03/09 05:54:59;;;;;;;60.63;22.73;;;1.40;99.90;;;;;;6221140;23;20004;-83
2023/03/09 05:57:25;;;;;;;65.05;26.13;;;1.40;99.90;;;;;;6220722;23;20039;-84
2023/03/09 05:59:50;;;;;;;59.67;24.08;;;1.40;99.90;;;;;;6218748;23;20000;-84
2023/03/09 06:02:16;;;;;;;65.47;26.60;;;1.40;99.90;;;;;;6218298;23;20389;-85
2023/03/09 06:04:42;;;;;;;60.00;23.40;;;1.40;99.90;;;;;;6221825;23;20015;-84
2023/03/09 06:07:08;;;;;;;62.95;25.25;;;1.40;99.90;;;;;;6248854;23;20011;-84
2023/03/09 06:09:34;;;;;;;62.50;24.88;;;1.40;99.90;;;;;;6221599;22;20004;-83
2023/03/09 06:12:00;;;;;;;69.20;25.17;;;1.40;99.90;;;;;;6222448;23;20007;-84
2023/03/09 06:14:26;;;;;;;60.42;25.27;;;1.40;99.90;;;;;;6250087;22;20018;-84
2023/03/09 06:16:51;;;;;;;61.30;23.55;;;1.40;99.90;;;;;;6222784;23;20019;-84
2023/03/09 06:19:17;;;;;;;65.50;26.10;;;1.50;99.90;;;;;;6249567;23;20327;-84
2023/03/09 06:21:42;;;;;;;66.65;26.17;;;1.40;99.90;;;;;;6222567;23;20000;-84
2023/03/09 06:24:09;;;;;;;71.28;26.02;;;1.50;99.90;;;;;;6219609;23;20058;-83
2023/03/09 06:26:35;;;;;;;66.15;24.25;;;1.50;99.90;;;;;;6219883;23;20004;-84
2023/03/09 06:29:00;;;;;;;66.40;26.85;;;1.50;99.90;;;;;;6220020;23;20007;-84
2023/03/09 06:31:26;;;;;;;67.45;26.65;;;1.50;99.90;;;;;;6218795;23;20000;-84
2023/03/09 06:33:52;;;;;;;56.20;21.75;;;1.50;99.90;;;;;;6220047;23;20003;-84
2023/03/09 06:36:18;;;;;;;66.32;25.88;;;1.60;99.90;;;;;;6219725;23;20377;-84
2023/03/09 06:38:44;;;;;;;65.85;25.75;;;1.60;99.90;;;;;;6219399;23;20008;-84
2023/03/09 06:41:10;;;;;;;69.20;25.75;;;1.60;99.90;;;;;;6219514;23;20004;-84
2023/03/09 06:43:36;;;;;;;71.05;26.58;;;1.70;99.90;;;;;;6220046;23;20448;-84
2023/03/09 06:46:01;;;;;;;65.30;25.65;;;1.70;99.90;;;;;;6246731;23;20387;-84
2023/03/09 06:48:27;;;;;;;72.22;27.67;;;1.70;99.90;;;;;;6219470;23;20012;-83
2023/03/09 06:50:53;;;;;;;64.97;25.38;;;1.70;99.90;;;;;;6219986;23;20083;-84
2023/03/09 06:53:18;;;;;;;69.22;26.23;;;1.70;99.90;;;;;;6219723;23;20004;-83
2023/03/09 06:55:44;;;;;;;70.35;28.75;;;1.80;99.90;;;;;;6221346;23;20008;-84
2023/03/09 06:58:10;;;;;;;67.15;26.42;;;1.80;99.90;;;;;;6221216;23;20058;-84
2023/03/09 07:00:37;;;;;;;68.65;25.80;;;1.80;99.90;;;;;;6221622;23;20437;-84
2023/03/09 07:03:05;;;;;;;64.88;25.13;;;1.80;99.90;;;;;;6220558;23;20023;-84
2023/03/09 07:05:30;;;;;;;65.93;24.90;;;1.80;99.90;;;;;;6220384;23;20047;-84
2023/03/09 07:07:56;;;;;;;67.53;26.90;;;1.90;99.90;;;;;;6220502;23;20000;-84
2023/03/09 07:10:21;;;;;;;69.20;27.08;;;1.90;99.90;;;;;;6246821;23;20438;-85
2023/03/09 07:12:48;;;;;;;67.22;25.92;;;1.90;99.90;;;;;;6247541;23;20426;-84
2023/03/09 07:15:14;;;;;;;70.38;27.77;;;1.90;99.90;;;;;;6219830;23;20000;-84
2023/03/09 07:17:41;;;;;;;64.75;24.55;;;2.00;99.90;;;;;;6220728;23;20023;-84
2023/03/09 07:20:14;;;;;;;70.78;25.27;;;2.00;99.90;;;;;;6247928;23;19997;-83
2023/03/09 07:22:42;;;;;;;72.03;26.15;;;2.00;99.90;;;;;;6222377;23;20035;-84
2023/03/09 07:25:09;;;;;;;63.78;24.38;;;2.00;99.90;;;;;;6221890;23;20023;-84
2023/03/09 07:27:34;;;;;;;71.63;26.85;;;2.00;99.90;;;;;;6222411;23;20011;-83
2023/03/09 07:30:00;;;;;;;66.85;24.77;;;2.00;99.90;;;;;;6221491;23;20005;-84
2023/03/09 07:32:26;;;;;;;63.60;26.65;;;2.00;99.90;;;;;;6220786;23;20004;-85
2023/03/09 07:34:52;;;;;;;68.03;27.33;;;2.00;99.90;;;;;;6219569;23;20038;-83
2023/03/09 07:37:17;;;;;;;67.07;26.33;;;2.00;99.90;;;;;;6247064;22;20087;-84
2023/03/09 07:39:43;;;;;;;64.10;26.67;;;2.00;99.90;;;;;;6221798;23;20012;-84
2023/03/09 07:42:09;;;;;;;67.00;26.92;;;2.10;99.90;;;;;;6220833;22;20000;-83
2023/03/09 07:44:34;;;;;;;58.88;24.13;;;2.10;99.90;;;;;;6221379;23;20166;-84
2023/03/09 07:47:00;;;;;;;64.80;25.95;;;2.10;99.90;;;;;;6221030;22;20054;-84
2023/03/09 07:49:26;;;;;;;69.13;26.92;;;2.10;99.90;;;;;;6221643;23;20390;-85
2023/03/09 07:51:52;;;;;;;63.95;26.63;;;2.10;99.90;;;;;;6222060;23;20004;-84
2023/03/09 07:54:18;;;;;;;64.57;25.38;;;2.20;99.90;;;;;;6220724;23;19996;-84
2023/03/09 07:56:47;;;;;;;67.43;27.17;;;2.20;99.90;;;;;;6221182;23;20004;-84
2023/03/09 07:59:15;;;;;;;57.28;22.50;;;2.30;99.90;;;;;;6220674;23;20087;-84
2023/03/09 08:01:40;;;;;;;62.67;25.25;;;2.30;99.90;;;;;;6218701;23;20394;-84
2023/03/09 08:04:06;;;;;;;66.60;27.33;;;2.40;99.90;;;;;;6219259;23;20020;-84
2023/03/09 08:06:32;;;;;;;64.38;26.42;;;2.40;99.90;;;;;;6220939;23;20023;-84
2023/03/09 08:08:57;;;;;;;70.35;27.48;;;2.50;99.90;;;;;;6220830;23;20004;-84
2023/03/09 08:11:23;;;;;;;62.67;26.38;;;2.50;99.90;;;;;;6219629;23;20015;-85
2023/03/09 08:13:48;;;;;;;64.95;27.73;;;2.60;99.90;;;;;;6220499;23;20054;-85
2023/03/09 08:16:14;;;;;;;62.63;25.13;;;2.70;99.90;;;;;;6219825;23;20016;-84
2023/03/09 08:18:40;;;;;;;58.65;24.30;;;2.70;99.90;;;;;;6219396;23;20016;-85
2023/03/09 08:21:11;;;;;;;63.97;25.48;;;2.70;99.90;;;;;;6218525;23;20007;-86
2023/03/09 08:23:43;;;;;;;61.92;25.77;;;2.80;99.90;;;;;;6217916;22;20042;-84
2023/03/09 08:26:16;;;;;;;63.67;24.98;;;2.80;99.90;;;;;;6217031;23;20000;-83
2023/03/09 08:28:42;;;;;;;61.10;24.40;;;2.80;99.90;;;;;;6218379;23;20005;-84
2023/03/09 08:31:14;;;;;;;58.15;24.05;;;2.80;99.90;;;;;;6217634;23;20134;-84
2023/03/09 08:33:40;;;;;;;67.72;28.33;;;2.80;99.90;;;;;;6217640;23;20009;-84
2023/03/09 08:36:13;;;;;;;65.97;28.15;;;2.80;99.90;;;;;;6217319;23;20030;-84
2023/03/09 08:38:38;;;;;;;63.75;26.05;;;2.80;99.90;;;;;;6218154;23;20023;-83
2023/03/09 08:41:04;;;;;;;65.60;26.83;;;2.90;99.90;;;;;;6217914;23;20341;-84
2023/03/09 08:43:29;;;;;;;72.32;28.42;;;2.90;99.90;;;;;;6218455;23;20016;-84
2023/03/09 08:45:55;;;;;;;68.93;27.85;;;3.00;99.90;;;;;;6244484;23;20031;-83
2023/03/09 08:48:20;;;;;;;59.00;26.50;;;3.20;99.90;;;;;;6217973;23;20095;-84
2023/03/09 08:50:46;;;;;;;63.70;24.50;;;3.30;99.90;;;;;;6218772;23;20008;-84
2023/03/09 08:53:11;;;;;;;65.32;26.35;;;3.40;99.90;;;;;;6217684;23;20549;-84
2023/03/09 08:55:37;;;;;;;66.70;26.67;;;3.40;99.90;;;;;;6218327;23;20107;-84
2023/03/09 08:58:02;;;;;;;60.00;27.10;;;3.40;99.90;;;;;;6217939;23;20004;-84
2023/03/09 09:00:28;;;;;;;61.78;26.80;;;3.40;99.90;;;;;;6218665;23;20012;-84
2023/03/09 09:02:53;;;;;;;63.22;26.42;;;3.40;99.90;;;;;;6217651;23;20402;-83
2023/03/09 09:05:19;;;;;;;61.72;26.73;;;3.40;99.90;;;;;;6217258;23;20370;-83
2023/03/09 09:07:45;;;;;;;64.38;28.05;;;3.30;99.90;;;;;;6217439;23;20011;-84
2023/03/09 09:10:10;;;;;;;67.35;29.35;;;3.30;99.90;;;;;;6217731;23;20075;-83
2023/03/09 09:12:37;;;;;;;61.15;27.35;;;3.30;99.90;;;;;;6218827;23;20004;-84
2023/03/09 09:15:05;;;;;;;68.63;29.45;;;3.20;99.90;;;;;;6218221;23;20008;-84
2023/03/09 09:17:31;;;;;;;60.40;26.77;;;3.30;99.90;;;;;;6217635;23;20447;-84
2023/03/09 09:19:56;;;;;;;60.67;27.42;;;3.30;99.90;;;;;;6218289;23;20014;-84
2023/03/09 09:22:22;;;;;;;63.25;27.77;;;3.30;99.90;;;;;;6217936;23;20087;-84
2023/03/09 09:24:49;;;;;;;65.75;29.42;;;3.30;99.90;;;;;;6218646;23;20011;-84
2023/03/09 09:27:14;;;;;;;67.43;29.15;;;3.40;99.90;;;;;;6217449;23;20004;-84
2023/03/09 09:29:40;;;;;;;62.55;27.88;;;3.50;99.90;;;;;;6217836;23;20004;-84
2023/03/09 09:32:06;;;;;;;62.33;27.13;;;3.70;99.90;;;;;;6218359;23;19997;-84
2023/03/09 09:34:33;;;;;;;60.60;26.90;;;3.80;99.90;;;;;;6244880;23;20079;-84
2023/03/09 09:37:00;;;;;;;57.90;26.17;;;3.90;99.90;;;;;;6217580;23;20005;-84
2023/03/09 09:39:29;;;;;;;58.90;27.48;;;4.00;99.90;;;;;;6217388;23;20012;-84
2023/03/09 09:41:59;;;;;;;61.88;27.63;;;4.00;99.90;;;;;;6244951;23;20007;-84
2023/03/09 09:44:32;;;;;;;59.45;26.58;;;4.10;99.90;;;;;;6218021;23;20012;-84
2023/03/09 09:46:59;;;;;;;;;;;4.10;99.90;;;;;;6218198;23;20047;-84
2023/03/09 09:49:28;;;;;;;59.00;25.58;;;4.20;99.90;;;;;;6217368;23;19926;-84
2023/03/09 09:52:26;;;;;;;58.80;24.85;;;4.20;99.90;;;;;;6218184;23;20032;-84
2023/03/09 09:55:17;;;;;;;59.42;26.90;;;4.20;99.90;;;;;;6183497;23;20386;-84
2023/03/09 09:57:59;;;;;;;59.58;27.13;;;4.20;99.90;;;;;;6217070;23;20083;-83
2023/03/09 10:00:32;;;;;;;;;;;4.20;99.90;;;;;;6217737;23;20011;-83
2023/03/09 10:03:16;;;;;;;;;;;4.20;99.90;;;;;;6217780;23;19911;-83
2023/03/09 10:05:55;;;;;;;56.65;23.67;;;4.20;99.90;;;;;;6244792;23;19900;-83
2023/03/09 10:08:39;;;;;;;55.67;23.95;;;4.10;99.90;;;;;;6217357;23;20202;-83
2023/03/09 10:11:31;;;;;;;61.22;25.92;;;4.10;99.90;;;;;;6244379;23;20007;-83
2023/03/09 10:14:24;;;;;;;59.83;27.80;;;4.10;99.90;;;;;;6244678;23;20000;-84
2023/03/09 10:17:11;;;;;;;60.47;27.55;;;4.10;99.90;;;;;;6217506;23;20030;-84
2023/03/09 10:19:39;;;;;;;60.08;28.35;;;4.20;99.90;;;;;;6217712;23;20020;-84
2023/03/09 10:22:17;;;;;;;64.07;27.15;;;4.30;99.90;;;;;;6217806;23;20047;-84
2023/03/09 10:24:54;;;;;;;59.03;26.55;;;4.30;99.90;;;;;;6217666;23;20008;-84
2023/03/09 10:27:31;;;;;;;57.40;27.92;;;4.30;99.90;;;;;;6216288;23;20395;-84
2023/03/09 10:30:01;;;;;;;57.50;26.08;;;4.30;99.90;;;;;;6217183;23;20007;-84
2023/03/09 10:32:57;;;;;;;58.92;27.38;;;4.30;99.90;;;;;;6218207;23;20008;-84
2023/03/09 10:35:45;;;;;;;58.22;27.08;;;4.30;99.90;;;;;;6206148;23;20004;-84
2023/03/09 10:38:19;;;;;;;61.35;26.48;;;4.40;99.90;;;;;;6216685;23;20036;-84
2023/03/09 10:40:50;;;;;;;57.50;25.98;;;4.50;99.90;;;;;;6217201;23;20431;-84
2023/03/09 10:43:29;;;;;;;55.30;25.23;;;4.50;99.90;;;;;;6217134;23;20452;-84
2023/03/09 10:46:08;;;;;;;62.10;27.15;;;4.60;99.90;;;;;;6217420;23;20023;-84
2023/03/09 10:48:34;;;;;;;59.78;26.20;;;4.70;99.90;;;;;;6216776;23;20362;-84
2023/03/09 10:51:02;;;;;;;58.78;26.85;;;4.70;99.90;;;;;;6217342;23;20004;-84
2023/03/09 10:53:36;;;;;;;54.95;26.60;;;4.70;99.90;;;;;;6244496;23;20008;-84
2023/03/09 10:56:23;;;;;;;57.90;27.00;;;4.80;99.90;;;;;;6217100;23;20008;-83
2023/03/09 10:59:06;;;;;;;54.92;25.67;;;5.00;99.90;;;;;;6216940;23;20012;-84
2023/03/09 11:01:35;;;;;;;55.78;26.35;;;5.10;99.90;;;;;;6216898;23;20001;-84
2023/03/09 11:04:01;;;;;;;52.85;25.50;;;5.10;99.90;;;;;;6216877;23;20042;-84
2023/03/09 11:06:37;;;;;;;51.35;24.92;;;5.20;99.90;;;;;;6217479;23;20050;-84
2023/03/09 11:09:14;;;;;;;53.17;27.48;;;5.10;99.90;;;;;;6216933;23;20070;-84
2023/03/09 11:11:42;;;;;;;60.67;27.70;;;5.00;99.90;;;;;;6216580;23;20000;-84
2023/03/09 11:14:26;;;;;;;52.65;25.17;;;5.10;99.90;;;;;;6216239;23;20012;-84
2023/03/09 11:16:59;;;;;;;55.03;25.85;;;5.10;99.90;;;;;;6217092;23;20559;-84
2023/03/09 11:19:25;;;;;;;65.57;28.83;;;5.10;99.90;;;;;;6216667;23;20027;-84
2023/03/09 11:21:57;;;;;;;58.22;26.60;;;5.10;99.90;;;;;;6217076;23;20004;-85
2023/03/09 11:24:38;;;;;;;57.78;26.10;;;5.20;99.90;;;;;;6216085;23;20008;-84
2023/03/09 11:27:25;;;;;;;58.92;27.10;;;5.20;99.90;;;;;;6216753;23;20004;-85
2023/03/09 11:30:06;;;;;;;58.00;26.17;;;5.20;99.90;;;;;;6216232;23;20012;-84
2023/03/09 11:32:32;;;;;;;53.53;25.65;;;5.30;99.90;;;;;;6216837;23;20016;-84
2023/03/09 11:34:59;;;;;;;56.13;26.05;;;5.30;99.90;;;;;;6243759;23;20624;-84
2023/03/09 11:37:37;;;;;;;54.58;25.75;;;5.30;99.90;;;;;;6216587;23;20036;-84
2023/03/09 11:40:10;;;;;;;56.28;26.85;;;5.30;99.90;;;;;;6218085;23;20036;-84
2023/03/09 11:42:47;;;;;;;58.22;26.38;;;5.20;99.90;;;;;;6219011;23;19996;-84
2023/03/09 11:45:18;;;;;;;52.70;23.65;;;5.20;99.90;;;;;;6217934;23;20000;-84
2023/03/09 11:48:21;;;;;;;55.85;26.77;;;5.10;99.90;;;;;;6219082;23;20058;-83
2023/03/09 11:51:01;;;;;;;51.78;24.58;;;5.00;99.90;;;;;;6218869;23;20011;-83
2023/03/09 11:53:46;;;;;;;50.40;23.50;;;5.10;99.90;;;;;;6245745;23;20007;-83
2023/03/09 11:56:15;;;;;;;59.22;26.05;;;5.00;99.90;;;;;;6217967;23;20007;-83
2023/03/09 11:58:43;;;;;;;51.53;24.05;;;4.90;99.90;;;;;;6218684;23;20040;-83
2023/03/09 12:01:21;;;;;;;54.63;25.10;;;4.90;99.90;;;;;;6218555;23;20046;-83
2023/03/09 12:04:00;;;;;;;51.78;24.38;;;4.80;99.90;;;;;;6218954;23;20110;-83
2023/03/09 12:06:43;;;;;;;56.22;26.52;;;4.80;99.90;;;;;;6219069;23;20083;-83
2023/03/09 12:09:28;;;;;;;52.10;24.10;;;4.80;99.90;;;;;;6218201;23;20094;-83
2023/03/09 12:12:19;;;;;;;51.53;22.90;;;4.90;99.90;;;;;;6218939;23;20090;-84
2023/03/09 12:14:52;;;;;;;46.92;22.17;;;4.90;99.90;;;;;;6218816;23;20031;-83
2023/03/09 12:17:27;;;;;;;52.65;24.80;;;4.80;99.90;;;;;;6218150;23;20015;-83
2023/03/09 12:19:54;;;;;;;54.78;25.30;;;4.80;99.90;;;;;;6219041;23;20034;-83
2023/03/09 12:22:30;;;;;;;59.70;25.92;;;4.70;99.90;;;;;;6217781;23;19996;-83
2023/03/09 12:25:02;;;;;;;54.88;23.02;;;4.70;99.90;;;;;;6219251;23;20032;-84
2023/03/09 12:27:31;;;;;;;52.50;24.90;;;4.60;99.90;;;;;;6220463;23;20000;-83
2023/03/09 12:30:08;;;;;;;60.22;26.33;;;4.50;99.90;;;;;;6220215;23;20427;-83
2023/03/09 12:32:40;;;;;;;58.05;26.10;;;4.40;99.90;;;;;;6218597;23;20083;-83
2023/03/09 12:35:11;;;;;;;57.70;27.50;;;4.40;99.90;;;;;;6216517;23;20343;-83
2023/03/09 12:37:40;;;;;;;57.37;26.13;;;4.40;99.90;;;;;;6217907;23;20012;-83
2023/03/09 12:40:24;;;;;;;60.13;28.35;;;4.40;99.90;;;;;;6217799;22;20271;-83
2023/03/09 12:42:53;;;;;;;59.33;27.67;;;4.40;99.90;;;;;;6218159;23;20429;-83
2023/03/09 12:45:18;;;;;;;59.88;26.63;;;4.40;99.90;;;;;;6217231;23;20058;-82
2023/03/09 12:47:50;;;;;;;62.38;29.42;;;4.30;99.90;;;;;;6217144;23;20016;-82